sensor_id;sensor_type;location;lat;lon;timestamp;temperature;humidity
2935;DHT22;2462;51.456;7.248;2023-06-14T00:01:46;25.40;62.30
2935;DHT22;2462;51.456;7.248;2023-06-14T00:04:13;25.40;62.30
2935;DHT22;2462;51.456;7.248;2023-06-14T00:06:39;25.40;62.40
2935;DHT22;2462;51.456;7.248;2023-06-14T00:09:05;25.40;62.70
2935;DHT22;2462;51.456;7.248;2023-06-14T00:11:33;25.40;62.80
2935;DHT22;2462;51.456;7.248;2023-06-14T00:13:59;25.40;62.80
2935;DHT22;2462;51.456;7.248;2023-06-14T00:16:24;25.40;62.70
2935;DHT22;2462;51.456;7.248;2023-06-14T00:18:50;25.40;62.70
2935;DHT22;2462;51.456;7.248;2023-06-14T00:21:17;25.30;62.70
2935;DHT22;2462;51.456;7.248;2023-06-14T00:23:43;25.30;62.70
2935;DHT22;2462;51.456;7.248;2023-06-14T00:26:08;25.30;62.80
2935;DHT22;2462;51.456;7.248;2023-06-14T00:28:34;25.30;62.90
2935;DHT22;2462;51.456;7.248;2023-06-14T00:31:00;25.30;63.00
2935;DHT22;2462;51.456;7.248;2023-06-14T00:33:25;25.20;62.90
2935;DHT22;2462;51.456;7.248;2023-06-14T00:35:51;25.20;63.00
2935;DHT22;2462;51.456;7.248;2023-06-14T00:38:19;25.20;63.20
2935;DHT22;2462;51.456;7.248;2023-06-14T00:40:45;25.10;63.00
2935;DHT22;2462;51.456;7.248;2023-06-14T00:43:10;25.10;63.00
2935;DHT22;2462;51.456;7.248;2023-06-14T00:45:36;25.10;63.00
2935;DHT22;2462;51.456;7.248;2023-06-14T00:48:02;25.00;62.90
2935;DHT22;2462;51.456;7.248;2023-06-14T00:50:28;25.00;63.00
2935;DHT22;2462;51.456;7.248;2023-06-14T00:52:56;24.90;63.20
2935;DHT22;2462;51.456;7.248;2023-06-14T00:55:23;24.90;63.20
2935;DHT22;2462;51.456;7.248;2023-06-14T00:57:48;24.90;63.20
2935;DHT22;2462;51.456;7.248;2023-06-14T01:00:14;24.90;63.30
2935;DHT22;2462;51.456;7.248;2023-06-14T01:02:40;24.80;63.00
2935;DHT22;2462;51.456;7.248;2023-06-14T01:05:07;24.80;63.40
2935;DHT22;2462;51.456;7.248;2023-06-14T01:10:29;24.80;63.10
2935;DHT22;2462;51.456;7.248;2023-06-14T01:15:34;24.80;63.90
2935;DHT22;2462;51.456;7.248;2023-06-14T01:18:00;24.70;63.20
2935;DHT22;2462;51.456;7.248;2023-06-14T01:20:31;24.70;63.60
2935;DHT22;2462;51.456;7.248;2023-06-14T01:22:58;24.70;63.20
2935;DHT22;2462;51.456;7.248;2023-06-14T01:25:24;24.60;63.10
2935;DHT22;2462;51.456;7.248;2023-06-14T01:27:53;24.60;63.10
2935;DHT22;2462;51.456;7.248;2023-06-14T01:30:21;24.60;63.60
2935;DHT22;2462;51.456;7.248;2023-06-14T01:32:48;24.60;63.50
2935;DHT22;2462;51.456;7.248;2023-06-14T01:35:16;24.60;64.00
2935;DHT22;2462;51.456;7.248;2023-06-14T01:37:43;24.60;63.40
2935;DHT22;2462;51.456;7.248;2023-06-14T01:40:10;24.60;63.70
2935;DHT22;2462;51.456;7.248;2023-06-14T01:42:38;24.50;63.50
2935;DHT22;2462;51.456;7.248;2023-06-14T01:45:05;24.50;63.40
2935;DHT22;2462;51.456;7.248;2023-06-14T01:47:31;24.50;63.40
2935;DHT22;2462;51.456;7.248;2023-06-14T01:49:58;24.50;63.50
2935;DHT22;2462;51.456;7.248;2023-06-14T01:52:23;24.50;63.60
2935;DHT22;2462;51.456;7.248;2023-06-14T01:54:52;24.50;64.00
2935;DHT22;2462;51.456;7.248;2023-06-14T01:57:19;24.40;63.40
2935;DHT22;2462;51.456;7.248;2023-06-14T01:59:45;24.40;63.50
2935;DHT22;2462;51.456;7.248;2023-06-14T02:02:14;24.40;63.30
2935;DHT22;2462;51.456;7.248;2023-06-14T02:04:40;24.40;63.30
2935;DHT22;2462;51.456;7.248;2023-06-14T02:07:05;24.40;63.60
2935;DHT22;2462;51.456;7.248;2023-06-14T02:09:31;24.40;63.40
2935;DHT22;2462;51.456;7.248;2023-06-14T02:11:56;24.30;63.50
2935;DHT22;2462;51.456;7.248;2023-06-14T02:14:22;24.30;63.40
2935;DHT22;2462;51.456;7.248;2023-06-14T02:16:48;24.30;63.80
2935;DHT22;2462;51.456;7.248;2023-06-14T02:19:18;24.30;63.70
2935;DHT22;2462;51.456;7.248;2023-06-14T02:21:44;24.20;64.00
2935;DHT22;2462;51.456;7.248;2023-06-14T02:24:10;24.20;63.30
2935;DHT22;2462;51.456;7.248;2023-06-14T02:26:36;24.20;63.60
2935;DHT22;2462;51.456;7.248;2023-06-14T02:29:06;24.20;63.50
2935;DHT22;2462;51.456;7.248;2023-06-14T02:31:35;24.20;63.80
2935;DHT22;2462;51.456;7.248;2023-06-14T02:34:00;24.20;63.80
2935;DHT22;2462;51.456;7.248;2023-06-14T02:36:26;24.20;64.30
2935;DHT22;2462;51.456;7.248;2023-06-14T02:38:51;24.20;64.10
2935;DHT22;2462;51.456;7.248;2023-06-14T02:41:19;24.10;63.80
2935;DHT22;2462;51.456;7.248;2023-06-14T02:43:45;24.10;64.00
2935;DHT22;2462;51.456;7.248;2023-06-14T02:46:10;24.10;64.10
2935;DHT22;2462;51.456;7.248;2023-06-14T02:48:36;24.10;64.10
2935;DHT22;2462;51.456;7.248;2023-06-14T02:51:02;24.10;63.80
2935;DHT22;2462;51.456;7.248;2023-06-14T02:53:28;24.10;64.50
2935;DHT22;2462;51.456;7.248;2023-06-14T02:55:53;24.10;64.30
2935;DHT22;2462;51.456;7.248;2023-06-14T02:58:21;24.00;64.30
2935;DHT22;2462;51.456;7.248;2023-06-14T03:00:46;24.00;64.30
2935;DHT22;2462;51.456;7.248;2023-06-14T03:03:12;24.00;65.40
2935;DHT22;2462;51.456;7.248;2023-06-14T03:05:45;24.00;64.00
2935;DHT22;2462;51.456;7.248;2023-06-14T03:08:13;24.00;64.30
2935;DHT22;2462;51.456;7.248;2023-06-14T03:10:45;24.00;65.00
2935;DHT22;2462;51.456;7.248;2023-06-14T03:13:11;24.00;64.10
2935;DHT22;2462;51.456;7.248;2023-06-14T03:15:37;23.90;64.00
2935;DHT22;2462;51.456;7.248;2023-06-14T03:18:04;23.90;64.10
2935;DHT22;2462;51.456;7.248;2023-06-14T03:20:30;23.90;64.50
2935;DHT22;2462;51.456;7.248;2023-06-14T03:22:59;23.90;64.30
2935;DHT22;2462;51.456;7.248;2023-06-14T03:25:25;23.90;65.00
2935;DHT22;2462;51.456;7.248;2023-06-14T03:27:51;23.90;64.50
2935;DHT22;2462;51.456;7.248;2023-06-14T03:30:16;23.90;64.60
2935;DHT22;2462;51.456;7.248;2023-06-14T03:32:42;23.80;64.40
2935;DHT22;2462;51.456;7.248;2023-06-14T03:35:08;23.80;64.60
2935;DHT22;2462;51.456;7.248;2023-06-14T03:37:34;23.80;65.30
2935;DHT22;2462;51.456;7.248;2023-06-14T03:40:00;23.90;65.10
2935;DHT22;2462;51.456;7.248;2023-06-14T03:42:26;23.90;64.60
2935;DHT22;2462;51.456;7.248;2023-06-14T03:44:51;23.80;64.50
2935;DHT22;2462;51.456;7.248;2023-06-14T03:47:17;23.80;64.40
2935;DHT22;2462;51.456;7.248;2023-06-14T03:49:42;23.80;64.90
2935;DHT22;2462;51.456;7.248;2023-06-14T03:52:08;23.80;64.60
2935;DHT22;2462;51.456;7.248;2023-06-14T03:54:33;23.80;64.80
2935;DHT22;2462;51.456;7.248;2023-06-14T03:56:59;23.80;64.70
2935;DHT22;2462;51.456;7.248;2023-06-14T03:59:25;23.80;64.60
2935;DHT22;2462;51.456;7.248;2023-06-14T04:01:51;23.80;64.90
2935;DHT22;2462;51.456;7.248;2023-06-14T04:04:16;23.80;64.70
2935;DHT22;2462;51.456;7.248;2023-06-14T04:06:43;23.80;64.80
2935;DHT22;2462;51.456;7.248;2023-06-14T04:09:09;23.80;64.90
2935;DHT22;2462;51.456;7.248;2023-06-14T04:11:34;23.80;64.70
2935;DHT22;2462;51.456;7.248;2023-06-14T04:14:02;23.80;64.50
2935;DHT22;2462;51.456;7.248;2023-06-14T04:16:27;23.80;64.80
2935;DHT22;2462;51.456;7.248;2023-06-14T04:18:54;23.90;64.80
2935;DHT22;2462;51.456;7.248;2023-06-14T04:21:20;24.00;64.60
2935;DHT22;2462;51.456;7.248;2023-06-14T04:23:46;24.10;64.90
2935;DHT22;2462;51.456;7.248;2023-06-14T04:26:12;24.20;64.70
2935;DHT22;2462;51.456;7.248;2023-06-14T04:28:37;24.30;64.60
2935;DHT22;2462;51.456;7.248;2023-06-14T04:31:06;24.40;64.50
2935;DHT22;2462;51.456;7.248;2023-06-14T04:33:37;24.50;64.50
2935;DHT22;2462;51.456;7.248;2023-06-14T04:36:11;24.60;64.50
2935;DHT22;2462;51.456;7.248;2023-06-14T04:38:43;24.70;64.30
2935;DHT22;2462;51.456;7.248;2023-06-14T04:41:10;24.80;64.80
2935;DHT22;2462;51.456;7.248;2023-06-14T04:43:37;24.90;64.20
2935;DHT22;2462;51.456;7.248;2023-06-14T04:46:04;24.90;64.70
2935;DHT22;2462;51.456;7.248;2023-06-14T04:48:31;24.90;64.50
2935;DHT22;2462;51.456;7.248;2023-06-14T04:50:57;25.10;64.60
2935;DHT22;2462;51.456;7.248;2023-06-14T04:53:23;25.10;65.40
2935;DHT22;2462;51.456;7.248;2023-06-14T04:55:49;25.20;62.20
2935;DHT22;2462;51.456;7.248;2023-06-14T04:58:15;24.80;55.10
2935;DHT22;2462;51.456;7.248;2023-06-14T05:00:41;24.40;54.90
2935;DHT22;2462;51.456;7.248;2023-06-14T05:03:14;24.00;55.30
2935;DHT22;2462;51.456;7.248;2023-06-14T05:05:41;23.70;55.40
2935;DHT22;2462;51.456;7.248;2023-06-14T05:08:07;23.30;55.80
2935;DHT22;2462;51.456;7.248;2023-06-14T05:10:33;23.10;56.30
2935;DHT22;2462;51.456;7.248;2023-06-14T05:13:01;22.90;56.70
2935;DHT22;2462;51.456;7.248;2023-06-14T05:15:27;22.80;57.10
2935;DHT22;2462;51.456;7.248;2023-06-14T05:17:54;22.70;57.50
2935;DHT22;2462;51.456;7.248;2023-06-14T05:20:24;22.70;57.40
2935;DHT22;2462;51.456;7.248;2023-06-14T05:22:52;22.60;57.60
2935;DHT22;2462;51.456;7.248;2023-06-14T05:25:19;22.50;57.60
2935;DHT22;2462;51.456;7.248;2023-06-14T05:27:45;22.40;57.30
2935;DHT22;2462;51.456;7.248;2023-06-14T05:30:11;22.50;57.50
2935;DHT22;2462;51.456;7.248;2023-06-14T05:32:36;22.50;57.80
2935;DHT22;2462;51.456;7.248;2023-06-14T05:35:02;22.50;57.80
2935;DHT22;2462;51.456;7.248;2023-06-14T05:37:29;22.40;57.70
2935;DHT22;2462;51.456;7.248;2023-06-14T05:39:54;22.40;57.80
2935;DHT22;2462;51.456;7.248;2023-06-14T05:42:20;22.50;57.90
2935;DHT22;2462;51.456;7.248;2023-06-14T05:44:45;22.50;57.90
2935;DHT22;2462;51.456;7.248;2023-06-14T05:47:11;22.50;58.20
2935;DHT22;2462;51.456;7.248;2023-06-14T05:49:36;22.40;58.10
2935;DHT22;2462;51.456;7.248;2023-06-14T05:52:02;22.40;57.60
2935;DHT22;2462;51.456;7.248;2023-06-14T05:54:27;22.40;57.80
2935;DHT22;2462;51.456;7.248;2023-06-14T05:56:53;22.40;57.80
2935;DHT22;2462;51.456;7.248;2023-06-14T05:59:19;22.40;57.90
2935;DHT22;2462;51.456;7.248;2023-06-14T06:01:45;22.40;57.90
2935;DHT22;2462;51.456;7.248;2023-06-14T06:04:11;22.50;58.20
2935;DHT22;2462;51.456;7.248;2023-06-14T06:06:37;22.60;58.30
2935;DHT22;2462;51.456;7.248;2023-06-14T06:09:02;22.60;57.80
2935;DHT22;2462;51.456;7.248;2023-06-14T06:11:28;22.70;57.50
2935;DHT22;2462;51.456;7.248;2023-06-14T06:13:53;22.70;57.80
2935;DHT22;2462;51.456;7.248;2023-06-14T06:16:19;22.80;58.30
2935;DHT22;2462;51.456;7.248;2023-06-14T06:18:44;22.90;58.40
2935;DHT22;2462;51.456;7.248;2023-06-14T06:21:10;23.00;57.30
2935;DHT22;2462;51.456;7.248;2023-06-14T06:23:35;23.00;57.20
2935;DHT22;2462;51.456;7.248;2023-06-14T06:26:02;23.00;57.20
2935;DHT22;2462;51.456;7.248;2023-06-14T06:28:27;23.20;57.20
2935;DHT22;2462;51.456;7.248;2023-06-14T06:30:53;23.20;56.70
2935;DHT22;2462;51.456;7.248;2023-06-14T06:33:18;23.20;56.80
2935;DHT22;2462;51.456;7.248;2023-06-14T06:35:44;23.20;56.80
2935;DHT22;2462;51.456;7.248;2023-06-14T06:38:10;23.30;57.10
2935;DHT22;2462;51.456;7.248;2023-06-14T06:40:36;23.40;57.20
2935;DHT22;2462;51.456;7.248;2023-06-14T06:43:02;23.40;57.10
2935;DHT22;2462;51.456;7.248;2023-06-14T06:45:28;23.50;57.10
2935;DHT22;2462;51.456;7.248;2023-06-14T06:47:54;23.50;56.80
2935;DHT22;2462;51.456;7.248;2023-06-14T06:50:21;23.50;56.30
2935;DHT22;2462;51.456;7.248;2023-06-14T06:52:48;23.50;56.20
2935;DHT22;2462;51.456;7.248;2023-06-14T06:55:14;23.50;57.30
2935;DHT22;2462;51.456;7.248;2023-06-14T06:57:40;23.50;56.30
2935;DHT22;2462;51.456;7.248;2023-06-14T07:00:06;23.60;56.40
2935;DHT22;2462;51.456;7.248;2023-06-14T07:02:34;23.70;56.80
2935;DHT22;2462;51.456;7.248;2023-06-14T07:05:00;23.80;56.70
2935;DHT22;2462;51.456;7.248;2023-06-14T07:07:26;23.80;55.70
2935;DHT22;2462;51.456;7.248;2023-06-14T07:09:51;23.80;55.50
2935;DHT22;2462;51.456;7.248;2023-06-14T07:12:17;23.80;55.60
2935;DHT22;2462;51.456;7.248;2023-06-14T07:14:43;23.80;56.50
2935;DHT22;2462;51.456;7.248;2023-06-14T07:17:09;23.90;56.20
2935;DHT22;2462;51.456;7.248;2023-06-14T07:19:35;23.90;55.30
2935;DHT22;2462;51.456;7.248;2023-06-14T07:22:00;23.90;55.50
2935;DHT22;2462;51.456;7.248;2023-06-14T07:24:26;23.90;56.20
2935;DHT22;2462;51.456;7.248;2023-06-14T07:26:53;24.00;56.70
2935;DHT22;2462;51.456;7.248;2023-06-14T07:29:20;24.10;55.70
2935;DHT22;2462;51.456;7.248;2023-06-14T07:31:46;24.20;55.20
2935;DHT22;2462;51.456;7.248;2023-06-14T07:34:12;24.20;55.30
2935;DHT22;2462;51.456;7.248;2023-06-14T07:36:38;24.10;54.60
2935;DHT22;2462;51.456;7.248;2023-06-14T07:39:04;24.10;54.80
2935;DHT22;2462;51.456;7.248;2023-06-14T07:41:31;24.20;55.50
2935;DHT22;2462;51.456;7.248;2023-06-14T07:43:56;24.30;55.00
2935;DHT22;2462;51.456;7.248;2023-06-14T07:46:22;24.30;55.40
2935;DHT22;2462;51.456;7.248;2023-06-14T07:48:48;24.40;54.90
2935;DHT22;2462;51.456;7.248;2023-06-14T07:51:13;24.40;54.50
2935;DHT22;2462;51.456;7.248;2023-06-14T07:53:39;24.40;54.30
2935;DHT22;2462;51.456;7.248;2023-06-14T07:56:06;24.30;54.20
2935;DHT22;2462;51.456;7.248;2023-06-14T07:58:31;24.30;54.30
2935;DHT22;2462;51.456;7.248;2023-06-14T08:00:57;24.30;54.70
2935;DHT22;2462;51.456;7.248;2023-06-14T08:03:23;24.30;54.90
2935;DHT22;2462;51.456;7.248;2023-06-14T08:05:49;24.40;55.00
2935;DHT22;2462;51.456;7.248;2023-06-14T08:08:15;24.40;55.30
2935;DHT22;2462;51.456;7.248;2023-06-14T08:10:41;24.50;55.70
2935;DHT22;2462;51.456;7.248;2023-06-14T08:13:06;24.60;55.10
2935;DHT22;2462;51.456;7.248;2023-06-14T08:15:32;24.60;54.80
2935;DHT22;2462;51.456;7.248;2023-06-14T08:17:57;24.60;54.60
2935;DHT22;2462;51.456;7.248;2023-06-14T08:20:24;24.70;54.50
2935;DHT22;2462;51.456;7.248;2023-06-14T08:22:50;24.80;53.30
2935;DHT22;2462;51.456;7.248;2023-06-14T08:25:20;25.00;53.20
2935;DHT22;2462;51.456;7.248;2023-06-14T08:27:46;25.00;51.60
2935;DHT22;2462;51.456;7.248;2023-06-14T08:30:12;24.90;51.50
2935;DHT22;2462;51.456;7.248;2023-06-14T08:32:37;24.90;52.60
2935;DHT22;2462;51.456;7.248;2023-06-14T08:35:04;24.90;52.60
2935;DHT22;2462;51.456;7.248;2023-06-14T08:37:31;24.90;51.50
2935;DHT22;2462;51.456;7.248;2023-06-14T08:39:58;24.80;52.00
2935;DHT22;2462;51.456;7.248;2023-06-14T08:42:24;24.80;51.80
2935;DHT22;2462;51.456;7.248;2023-06-14T08:44:50;24.90;52.20
2935;DHT22;2462;51.456;7.248;2023-06-14T08:47:16;25.00;52.50
2935;DHT22;2462;51.456;7.248;2023-06-14T08:49:46;25.10;52.60
2935;DHT22;2462;51.456;7.248;2023-06-14T08:52:15;25.10;52.40
2935;DHT22;2462;51.456;7.248;2023-06-14T08:54:45;25.20;51.50
2935;DHT22;2462;51.456;7.248;2023-06-14T08:57:14;25.10;50.70
2935;DHT22;2462;51.456;7.248;2023-06-14T08:59:45;25.00;51.10
2935;DHT22;2462;51.456;7.248;2023-06-14T09:02:12;25.00;51.20
2935;DHT22;2462;51.456;7.248;2023-06-14T09:04:40;25.00;51.80
2935;DHT22;2462;51.456;7.248;2023-06-14T09:07:05;25.10;52.50
2935;DHT22;2462;51.456;7.248;2023-06-14T09:09:32;25.20;52.10
2935;DHT22;2462;51.456;7.248;2023-06-14T09:11:57;25.40;52.90
2935;DHT22;2462;51.456;7.248;2023-06-14T09:14:26;25.60;53.10
2935;DHT22;2462;51.456;7.248;2023-06-14T09:16:54;25.70;52.00
2935;DHT22;2462;51.456;7.248;2023-06-14T09:19:23;25.70;51.20
2935;DHT22;2462;51.456;7.248;2023-06-14T09:21:50;25.60;50.40
2935;DHT22;2462;51.456;7.248;2023-06-14T09:24:18;25.40;50.10
2935;DHT22;2462;51.456;7.248;2023-06-14T09:26:47;25.40;50.70
2935;DHT22;2462;51.456;7.248;2023-06-14T09:29:13;25.40;50.50
2935;DHT22;2462;51.456;7.248;2023-06-14T09:31:38;25.40;51.00
2935;DHT22;2462;51.456;7.248;2023-06-14T09:34:04;25.40;51.50
2935;DHT22;2462;51.456;7.248;2023-06-14T09:36:31;25.50;52.20
2935;DHT22;2462;51.456;7.248;2023-06-14T09:39:03;25.70;51.40
2935;DHT22;2462;51.456;7.248;2023-06-14T09:41:37;25.70;49.80
2935;DHT22;2462;51.456;7.248;2023-06-14T09:44:06;25.60;49.20
2935;DHT22;2462;51.456;7.248;2023-06-14T09:46:32;25.50;49.00
2935;DHT22;2462;51.456;7.248;2023-06-14T09:48:59;25.40;49.00
2935;DHT22;2462;51.456;7.248;2023-06-14T09:51:25;25.40;49.60
2935;DHT22;2462;51.456;7.248;2023-06-14T09:53:52;25.30;49.30
2935;DHT22;2462;51.456;7.248;2023-06-14T09:56:23;25.30;49.80
2935;DHT22;2462;51.456;7.248;2023-06-14T09:58:55;25.30;50.30
2935;DHT22;2462;51.456;7.248;2023-06-14T10:01:22;25.30;50.60
2935;DHT22;2462;51.456;7.248;2023-06-14T10:03:50;25.40;50.80
2935;DHT22;2462;51.456;7.248;2023-06-14T10:06:16;25.50;51.10
2935;DHT22;2462;51.456;7.248;2023-06-14T10:08:43;25.60;51.50
2935;DHT22;2462;51.456;7.248;2023-06-14T10:11:12;25.70;51.90
2935;DHT22;2462;51.456;7.248;2023-06-14T10:13:38;25.80;52.00
2935;DHT22;2462;51.456;7.248;2023-06-14T10:19:10;25.90;51.60
2935;DHT22;2462;51.456;7.248;2023-06-14T10:22:01;25.90;51.80
2935;DHT22;2462;51.456;7.248;2023-06-14T10:24:35;25.80;51.20
2935;DHT22;2462;51.456;7.248;2023-06-14T10:27:06;25.80;51.70
2935;DHT22;2462;51.456;7.248;2023-06-14T10:32:27;26.00;52.10
2935;DHT22;2462;51.456;7.248;2023-06-14T10:34:58;26.00;52.20
2935;DHT22;2462;51.456;7.248;2023-06-14T10:37:24;26.10;53.00
2935;DHT22;2462;51.456;7.248;2023-06-14T10:39:50;26.20;52.60
2935;DHT22;2462;51.456;7.248;2023-06-14T10:42:16;26.10;51.70
2935;DHT22;2462;51.456;7.248;2023-06-14T10:44:51;26.10;51.40
2935;DHT22;2462;51.456;7.248;2023-06-14T10:47:25;26.00;52.30
2935;DHT22;2462;51.456;7.248;2023-06-14T10:49:53;26.10;52.80
2935;DHT22;2462;51.456;7.248;2023-06-14T10:52:27;26.10;52.70
2935;DHT22;2462;51.456;7.248;2023-06-14T10:57:29;26.20;51.90
2935;DHT22;2462;51.456;7.248;2023-06-14T10:59:57;26.00;51.40
2935;DHT22;2462;51.456;7.248;2023-06-14T11:05:25;25.80;52.70
2935;DHT22;2462;51.456;7.248;2023-06-14T11:10:56;25.90;52.20
2935;DHT22;2462;51.456;7.248;2023-06-14T11:13:25;25.90;52.20
2935;DHT22;2462;51.456;7.248;2023-06-14T11:15:51;26.10;52.80
2935;DHT22;2462;51.456;7.248;2023-06-14T11:18:18;26.20;53.10
2935;DHT22;2462;51.456;7.248;2023-06-14T11:20:46;26.30;52.30
2935;DHT22;2462;51.456;7.248;2023-06-14T11:23:12;26.30;52.10
2935;DHT22;2462;51.456;7.248;2023-06-14T11:25:37;26.30;52.10
2935;DHT22;2462;51.456;7.248;2023-06-14T11:28:03;26.40;52.30
2935;DHT22;2462;51.456;7.248;2023-06-14T11:30:29;26.40;52.20
2935;DHT22;2462;51.456;7.248;2023-06-14T11:32:55;26.40;52.10
2935;DHT22;2462;51.456;7.248;2023-06-14T11:35:24;26.50;52.20
2935;DHT22;2462;51.456;7.248;2023-06-14T11:37:55;26.60;52.30
2935;DHT22;2462;51.456;7.248;2023-06-14T11:40:24;26.60;52.50
2935;DHT22;2462;51.456;7.248;2023-06-14T11:42:49;26.60;51.80
2935;DHT22;2462;51.456;7.248;2023-06-14T11:45:15;26.60;51.90
2935;DHT22;2462;51.456;7.248;2023-06-14T11:47:41;26.60;51.40
2935;DHT22;2462;51.456;7.248;2023-06-14T11:50:08;26.50;51.30
2935;DHT22;2462;51.456;7.248;2023-06-14T11:52:35;26.50;51.90
2935;DHT22;2462;51.456;7.248;2023-06-14T11:55:02;26.60;52.00
2935;DHT22;2462;51.456;7.248;2023-06-14T11:57:30;26.60;51.50
2935;DHT22;2462;51.456;7.248;2023-06-14T11:59:58;26.40;51.70
2935;DHT22;2462;51.456;7.248;2023-06-14T12:02:24;26.50;51.80
2935;DHT22;2462;51.456;7.248;2023-06-14T12:04:50;26.60;52.10
2935;DHT22;2462;51.456;7.248;2023-06-14T12:07:16;26.40;51.60
2935;DHT22;2462;51.456;7.248;2023-06-14T12:12:25;26.30;51.90
2935;DHT22;2462;51.456;7.248;2023-06-14T12:14:51;26.20;51.00
2935;DHT22;2462;51.456;7.248;2023-06-14T12:17:17;26.20;51.20
2935;DHT22;2462;51.456;7.248;2023-06-14T12:19:44;26.20;51.10
2935;DHT22;2462;51.456;7.248;2023-06-14T12:22:11;26.20;51.60
2935;DHT22;2462;51.456;7.248;2023-06-14T12:24:36;26.20;52.00
2935;DHT22;2462;51.456;7.248;2023-06-14T12:27:03;26.30;51.90
2935;DHT22;2462;51.456;7.248;2023-06-14T12:29:29;26.30;51.80
2935;DHT22;2462;51.456;7.248;2023-06-14T12:31:55;26.30;51.30
2935;DHT22;2462;51.456;7.248;2023-06-14T12:34:23;26.40;51.70
2935;DHT22;2462;51.456;7.248;2023-06-14T12:36:50;26.40;51.50
2935;DHT22;2462;51.456;7.248;2023-06-14T12:39:15;26.40;51.50
2935;DHT22;2462;51.456;7.248;2023-06-14T12:41:42;26.50;52.10
2935;DHT22;2462;51.456;7.248;2023-06-14T12:44:07;26.50;51.60
2935;DHT22;2462;51.456;7.248;2023-06-14T12:46:33;26.60;51.90
2935;DHT22;2462;51.456;7.248;2023-06-14T12:49:00;26.70;52.20
2935;DHT22;2462;51.456;7.248;2023-06-14T12:51:26;26.80;52.00
2935;DHT22;2462;51.456;7.248;2023-06-14T12:53:51;26.80;51.80
2935;DHT22;2462;51.456;7.248;2023-06-14T12:56:17;26.90;52.00
2935;DHT22;2462;51.456;7.248;2023-06-14T12:58:43;27.00;52.00
2935;DHT22;2462;51.456;7.248;2023-06-14T13:01:08;27.00;51.00
2935;DHT22;2462;51.456;7.248;2023-06-14T13:03:34;27.00;51.00
2935;DHT22;2462;51.456;7.248;2023-06-14T13:06:01;27.00;51.10
2935;DHT22;2462;51.456;7.248;2023-06-14T13:08:27;27.00;51.10
2935;DHT22;2462;51.456;7.248;2023-06-14T13:10:53;27.10;50.90
2935;DHT22;2462;51.456;7.248;2023-06-14T13:13:19;27.10;50.50
2935;DHT22;2462;51.456;7.248;2023-06-14T13:15:45;26.90;49.80
2935;DHT22;2462;51.456;7.248;2023-06-14T13:18:11;26.90;50.60
2935;DHT22;2462;51.456;7.248;2023-06-14T13:20:39;26.80;50.50
2935;DHT22;2462;51.456;7.248;2023-06-14T13:23:05;26.90;50.90
2935;DHT22;2462;51.456;7.248;2023-06-14T13:25:33;27.00;51.00
2935;DHT22;2462;51.456;7.248;2023-06-14T13:27:59;26.80;49.80
2935;DHT22;2462;51.456;7.248;2023-06-14T13:30:24;26.60;49.70
2935;DHT22;2462;51.456;7.248;2023-06-14T13:32:50;26.50;49.90
2935;DHT22;2462;51.456;7.248;2023-06-14T13:35:18;26.40;50.60
2935;DHT22;2462;51.456;7.248;2023-06-14T13:37:43;26.50;50.90
2935;DHT22;2462;51.456;7.248;2023-06-14T13:40:10;26.40;51.40
2935;DHT22;2462;51.456;7.248;2023-06-14T13:42:36;26.40;50.50
2935;DHT22;2462;51.456;7.248;2023-06-14T13:45:02;26.40;50.50
2935;DHT22;2462;51.456;7.248;2023-06-14T13:47:28;26.40;51.10
2935;DHT22;2462;51.456;7.248;2023-06-14T13:49:54;26.50;51.40
2935;DHT22;2462;51.456;7.248;2023-06-14T13:52:20;26.50;51.20
2935;DHT22;2462;51.456;7.248;2023-06-14T13:54:46;26.50;50.80
2935;DHT22;2462;51.456;7.248;2023-06-14T13:57:11;26.40;50.90
2935;DHT22;2462;51.456;7.248;2023-06-14T13:59:39;26.40;51.00
2935;DHT22;2462;51.456;7.248;2023-06-14T14:02:06;26.40;51.00
2935;DHT22;2462;51.456;7.248;2023-06-14T14:04:32;26.40;51.50
2935;DHT22;2462;51.456;7.248;2023-06-14T14:06:58;26.50;51.80
2935;DHT22;2462;51.456;7.248;2023-06-14T14:09:23;26.60;51.60
2935;DHT22;2462;51.456;7.248;2023-06-14T14:11:49;26.50;50.40
2935;DHT22;2462;51.456;7.248;2023-06-14T14:14:15;26.30;50.50
2935;DHT22;2462;51.456;7.248;2023-06-14T14:16:40;26.10;51.00
2935;DHT22;2462;51.456;7.248;2023-06-14T14:19:07;26.00;51.30
2935;DHT22;2462;51.456;7.248;2023-06-14T14:21:33;26.10;52.10
2935;DHT22;2462;51.456;7.248;2023-06-14T14:23:58;26.10;51.60
2935;DHT22;2462;51.456;7.248;2023-06-14T14:26:24;26.10;51.70
2935;DHT22;2462;51.456;7.248;2023-06-14T14:28:50;26.20;51.60
2935;DHT22;2462;51.456;7.248;2023-06-14T14:31:16;26.30;51.80
2935;DHT22;2462;51.456;7.248;2023-06-14T14:33:42;26.20;50.50
2935;DHT22;2462;51.456;7.248;2023-06-14T14:36:07;26.10;51.20
2935;DHT22;2462;51.456;7.248;2023-06-14T14:38:33;26.00;50.30
2935;DHT22;2462;51.456;7.248;2023-06-14T14:41:00;25.90;50.80
2935;DHT22;2462;51.456;7.248;2023-06-14T14:43:26;25.80;51.50
2935;DHT22;2462;51.456;7.248;2023-06-14T14:45:52;26.00;52.40
2935;DHT22;2462;51.456;7.248;2023-06-14T14:48:17;26.10;51.70
2935;DHT22;2462;51.456;7.248;2023-06-14T14:50:43;26.00;51.50
2935;DHT22;2462;51.456;7.248;2023-06-14T14:53:08;26.10;52.30
2935;DHT22;2462;51.456;7.248;2023-06-14T14:55:34;26.10;51.60
2935;DHT22;2462;51.456;7.248;2023-06-14T14:58:02;26.00;50.50
2935;DHT22;2462;51.456;7.248;2023-06-14T15:00:28;26.00;50.80
2935;DHT22;2462;51.456;7.248;2023-06-14T15:02:54;25.80;50.90
2935;DHT22;2462;51.456;7.248;2023-06-14T15:05:19;25.80;50.80
2935;DHT22;2462;51.456;7.248;2023-06-14T15:07:45;25.80;50.90
2935;DHT22;2462;51.456;7.248;2023-06-14T15:10:11;25.80;51.50
2935;DHT22;2462;51.456;7.248;2023-06-14T15:12:37;25.80;51.50
2935;DHT22;2462;51.456;7.248;2023-06-14T15:15:03;25.90;51.80
2935;DHT22;2462;51.456;7.248;2023-06-14T15:17:29;26.00;50.90
2935;DHT22;2462;51.456;7.248;2023-06-14T15:19:55;26.00;51.60
2935;DHT22;2462;51.456;7.248;2023-06-14T15:22:20;26.00;51.50
2935;DHT22;2462;51.456;7.248;2023-06-14T15:24:46;26.00;50.90
2935;DHT22;2462;51.456;7.248;2023-06-14T15:27:12;26.00;50.70
2935;DHT22;2462;51.456;7.248;2023-06-14T15:29:39;26.00;51.00
2935;DHT22;2462;51.456;7.248;2023-06-14T15:32:05;26.00;51.40
2935;DHT22;2462;51.456;7.248;2023-06-14T15:34:32;26.00;51.80
2935;DHT22;2462;51.456;7.248;2023-06-14T15:36:57;26.10;50.90
2935;DHT22;2462;51.456;7.248;2023-06-14T15:39:23;26.10;51.00
2935;DHT22;2462;51.456;7.248;2023-06-14T15:41:52;26.10;51.00
2935;DHT22;2462;51.456;7.248;2023-06-14T15:44:18;26.10;50.90
2935;DHT22;2462;51.456;7.248;2023-06-14T15:46:43;26.10;50.70
2935;DHT22;2462;51.456;7.248;2023-06-14T15:49:10;26.20;51.40
2935;DHT22;2462;51.456;7.248;2023-06-14T15:51:36;26.30;51.00
2935;DHT22;2462;51.456;7.248;2023-06-14T15:54:02;26.40;50.80
2935;DHT22;2462;51.456;7.248;2023-06-14T15:56:27;26.60;50.80
2935;DHT22;2462;51.456;7.248;2023-06-14T15:58:53;26.60;50.10
2935;DHT22;2462;51.456;7.248;2023-06-14T16:01:18;26.70;49.80
2935;DHT22;2462;51.456;7.248;2023-06-14T16:03:44;26.70;49.20
2935;DHT22;2462;51.456;7.248;2023-06-14T16:06:10;26.90;49.20
2935;DHT22;2462;51.456;7.248;2023-06-14T16:08:35;26.80;49.30
2935;DHT22;2462;51.456;7.248;2023-06-14T16:11:01;26.80;49.50
2935;DHT22;2462;51.456;7.248;2023-06-14T16:13:26;26.80;49.30
2935;DHT22;2462;51.456;7.248;2023-06-14T16:15:52;26.80;49.30
2935;DHT22;2462;51.456;7.248;2023-06-14T16:18:17;26.80;49.50
2935;DHT22;2462;51.456;7.248;2023-06-14T16:20:44;26.80;49.20